createdAt,value
2018-12-25T00:00:48.752Z,-1.00
2018-12-25T00:03:20.467Z,-1.00
2018-12-25T00:05:53.334Z,-1.00
2018-12-25T00:08:24.742Z,-1.00
2018-12-25T00:10:56.676Z,-1.00
2018-12-25T00:13:29.149Z,-1.00
2018-12-25T00:16:00.502Z,-1.00
2018-12-25T00:18:31.843Z,-1.00
2018-12-25T00:21:07.735Z,-1.00
2018-12-25T00:23:40.055Z,-1.00
2018-12-25T00:26:11.384Z,-1.10
2018-12-25T00:28:42.712Z,-1.10
2018-12-25T00:31:14.042Z,-1.10
2018-12-25T00:33:45.332Z,-1.10
2018-12-25T00:36:17.281Z,-1.10
2018-12-25T00:38:48.674Z,-1.10
2018-12-25T00:41:20.005Z,-1.10
2018-12-25T00:43:51.294Z,-1.10
2018-12-25T00:46:22.749Z,-1.10
2018-12-25T00:48:54.034Z,-1.10
2018-12-25T00:51:25.358Z,-1.20
2018-12-25T00:53:56.708Z,-1.10
2018-12-25T00:56:28.063Z,-1.10
2018-12-25T00:58:59.457Z,-1.10
2018-12-25T01:01:30.794Z,-1.10
2018-12-25T01:04:02.215Z,-1.00
2018-12-25T01:06:33.570Z,-1.00
2018-12-25T01:09:06.914Z,-1.00
2018-12-25T01:11:38.313Z,-1.00
2018-12-25T01:14:09.655Z,-1.00
2018-12-25T01:16:41.231Z,-0.90
2018-12-25T01:19:12.694Z,-0.90
2018-12-25T01:21:43.982Z,-0.90
2018-12-25T01:24:15.431Z,-0.90
2018-12-25T01:26:46.813Z,-0.90
2018-12-25T01:29:18.117Z,-0.90
2018-12-25T01:31:49.419Z,-0.90
2018-12-25T01:34:20.746Z,-0.80
2018-12-25T01:36:52.050Z,-0.80
2018-12-25T01:39:23.527Z,-0.80
2018-12-25T01:41:55.095Z,-0.80
2018-12-25T01:44:26.453Z,-0.70
2018-12-25T01:46:57.997Z,-0.70
2018-12-25T01:49:31.885Z,-0.60
2018-12-25T01:52:02.330Z,-0.60
2018-12-25T01:54:34.043Z,-0.60
2018-12-25T01:57:05.389Z,-0.50
2018-12-25T01:59:36.739Z,-0.50
2018-12-25T02:02:08.145Z,-0.40
2018-12-25T02:04:39.578Z,-0.40
2018-12-25T02:07:10.902Z,-0.30
2018-12-25T02:09:42.250Z,-0.30
2018-12-25T02:12:13.575Z,-0.30
2018-12-25T02:14:44.957Z,-0.20
2018-12-25T02:17:16.374Z,-0.20
2018-12-25T02:19:47.769Z,-0.20
2018-12-25T02:22:19.100Z,-0.20
2018-12-25T02:24:50.441Z,-0.20
2018-12-25T02:27:23.182Z,-0.10
2018-12-25T02:29:54.856Z,-0.10
2018-12-25T02:32:26.155Z,0.00
2018-12-25T02:34:58.709Z,0.00
2018-12-25T02:37:30.219Z,0.00
2018-12-25T02:40:01.978Z,0.10
2018-12-25T02:42:33.360Z,0.10
2018-12-25T02:45:04.878Z,0.10
2018-12-25T02:47:36.307Z,0.10
2018-12-25T02:50:08.011Z,0.10
2018-12-25T02:52:39.365Z,0.10
2018-12-25T02:55:13.067Z,0.20
2018-12-25T02:57:44.560Z,0.20
2018-12-25T03:00:15.842Z,0.20
2018-12-25T03:02:47.733Z,0.20
2018-12-25T03:05:19.032Z,0.20
2018-12-25T03:07:50.799Z,0.30
2018-12-25T03:10:22.124Z,0.30
2018-12-25T03:12:53.686Z,0.30
2018-12-25T03:15:24.999Z,0.30
2018-12-25T03:17:56.401Z,0.40
2018-12-25T03:20:27.765Z,0.40
2018-12-25T03:22:59.071Z,0.40
2018-12-25T03:25:30.411Z,0.40
2018-12-25T03:28:01.735Z,0.50
2018-12-25T03:30:33.101Z,0.50
2018-12-25T03:33:04.435Z,0.50
2018-12-25T03:35:35.783Z,0.50
2018-12-25T03:38:07.099Z,0.50
2018-12-25T03:40:38.925Z,0.50
2018-12-25T03:43:10.194Z,0.50
2018-12-25T03:45:41.504Z,0.60
2018-12-25T03:48:12.806Z,0.60
2018-12-25T03:50:44.143Z,0.60
2018-12-25T03:53:15.424Z,0.60
2018-12-25T03:55:48.115Z,0.70
2018-12-25T03:58:19.978Z,0.60
2018-12-25T04:00:51.509Z,0.60
2018-12-25T04:03:24.618Z,0.70
2018-12-25T04:05:56.015Z,0.70
2018-12-25T04:08:27.485Z,0.70
2018-12-25T04:10:59.290Z,0.70
2018-12-25T04:13:30.635Z,0.70
2018-12-25T04:16:02.011Z,0.80
2018-12-25T04:18:33.397Z,0.80
2018-12-25T04:21:04.819Z,0.80
2018-12-25T04:23:36.578Z,0.80
2018-12-25T04:26:08.235Z,0.80
2018-12-25T04:28:39.593Z,0.80
2018-12-25T04:31:10.987Z,0.90
2018-12-25T04:33:42.317Z,0.90
2018-12-25T04:36:13.672Z,0.90
2018-12-25T04:38:44.982Z,0.90
2018-12-25T04:41:16.298Z,0.90
2018-12-25T04:43:47.623Z,0.90
2018-12-25T04:46:18.970Z,0.90
2018-12-25T04:48:50.555Z,0.90
2018-12-25T04:51:21.891Z,0.90
2018-12-25T04:53:53.231Z,0.90
2018-12-25T04:56:24.601Z,0.90
2018-12-25T04:58:55.918Z,0.90
2018-12-25T05:01:27.337Z,0.90
2018-12-25T05:03:58.639Z,0.90
2018-12-25T05:06:29.961Z,0.90
2018-12-25T05:09:01.273Z,0.90
2018-12-25T05:11:33.009Z,0.90
2018-12-25T05:14:04.389Z,0.90
2018-12-25T05:16:35.749Z,1.00
2018-12-25T05:19:07.138Z,1.00
2018-12-25T05:21:38.517Z,1.00
2018-12-25T05:24:09.798Z,1.00
2018-12-25T05:26:41.189Z,1.00
2018-12-25T05:29:12.506Z,1.00
2018-12-25T05:31:43.851Z,1.00
2018-12-25T05:34:16.273Z,1.00
2018-12-25T05:36:47.604Z,1.00
2018-12-25T05:39:18.933Z,1.00
2018-12-25T05:41:50.241Z,1.00
2018-12-25T05:44:21.862Z,1.00
2018-12-25T05:46:53.166Z,1.10
2018-12-25T05:49:24.492Z,1.10
2018-12-25T05:51:55.858Z,1.10
2018-12-25T05:54:27.230Z,1.10
2018-12-25T05:56:58.567Z,1.10
2018-12-25T05:59:29.889Z,1.10
2018-12-25T06:02:01.190Z,1.10
2018-12-25T06:04:32.514Z,1.10
2018-12-25T06:07:03.832Z,1.10
2018-12-25T06:09:35.178Z,1.10
2018-12-25T06:12:06.895Z,1.10
2018-12-25T06:14:38.280Z,1.10
2018-12-25T06:17:10.581Z,1.10
2018-12-25T06:19:41.911Z,1.10
2018-12-25T06:22:13.291Z,1.10
2018-12-25T06:24:44.611Z,1.10
2018-12-25T06:27:16.314Z,1.20
2018-12-25T06:29:47.642Z,1.20
2018-12-25T06:32:18.978Z,1.20
2018-12-25T06:34:50.342Z,1.20
2018-12-25T06:37:21.617Z,1.20
2018-12-25T06:39:52.957Z,1.20
2018-12-25T06:42:24.673Z,1.20
2018-12-25T06:44:56.006Z,1.20
2018-12-25T06:47:30.390Z,1.20
2018-12-25T06:50:01.670Z,1.20
2018-12-25T06:52:32.992Z,1.20
2018-12-25T06:55:04.381Z,1.20
2018-12-25T06:57:35.763Z,1.20
2018-12-25T07:00:07.739Z,1.30
2018-12-25T07:02:39.093Z,1.30
2018-12-25T07:05:10.433Z,1.30
2018-12-25T07:07:41.799Z,1.30
2018-12-25T07:10:13.133Z,1.20
2018-12-25T07:12:44.500Z,1.20
2018-12-25T07:15:15.818Z,1.20
2018-12-25T07:17:47.151Z,1.20
2018-12-25T07:20:19.840Z,1.20
2018-12-25T07:22:51.247Z,1.20
2018-12-25T07:25:23.245Z,1.20
2018-12-25T07:27:54.587Z,1.30
2018-12-25T07:30:25.926Z,1.30
2018-12-25T07:32:57.249Z,1.30
2018-12-25T07:35:28.557Z,1.30
2018-12-25T07:37:59.877Z,1.30
2018-12-25T07:40:31.250Z,1.40
2018-12-25T07:43:02.587Z,1.40
2018-12-25T07:45:33.932Z,1.40
2018-12-25T07:48:05.278Z,1.40
2018-12-25T07:50:36.633Z,1.50
2018-12-25T07:53:07.993Z,1.50
2018-12-25T07:55:40.656Z,1.50
2018-12-25T07:58:11.965Z,1.50
2018-12-25T08:00:43.376Z,1.50
2018-12-25T08:03:14.692Z,1.50
2018-12-25T08:05:46.079Z,1.50
2018-12-25T08:08:18.426Z,1.50
2018-12-25T08:10:49.780Z,1.50
2018-12-25T08:13:21.255Z,1.40
2018-12-25T08:15:52.657Z,1.50
2018-12-25T08:18:23.992Z,1.50
2018-12-25T08:20:55.346Z,1.50
2018-12-25T08:23:26.802Z,1.50
2018-12-25T08:25:58.194Z,1.50
2018-12-25T08:28:29.506Z,1.50
2018-12-25T08:31:00.854Z,1.50
2018-12-25T08:33:32.175Z,1.50
2018-12-25T08:36:03.518Z,1.50
2018-12-25T08:38:37.937Z,1.60
2018-12-25T08:41:09.479Z,1.60
2018-12-25T08:43:40.774Z,1.60
2018-12-25T08:46:12.097Z,1.60
2018-12-25T08:48:43.451Z,1.60
2018-12-25T08:51:14.794Z,1.60
2018-12-25T08:53:47.278Z,1.60
2018-12-25T08:56:18.659Z,1.60
2018-12-25T08:58:51.236Z,1.70
2018-12-25T09:01:23.848Z,1.80
2018-12-25T09:04:14.102Z,1.80
2018-12-25T09:07:04.325Z,1.70
2018-12-25T09:09:46.717Z,1.70
2018-12-25T09:12:29.587Z,1.70
2018-12-25T09:15:12.391Z,1.70
2018-12-25T09:17:55.173Z,1.70
2018-12-25T09:20:38.181Z,1.80
2018-12-25T09:26:19.008Z,1.80
2018-12-25T09:29:01.317Z,1.80
2018-12-25T09:31:44.457Z,1.80
2018-12-25T09:34:27.968Z,1.80
2018-12-25T09:37:11.194Z,1.80
2018-12-25T09:39:54.381Z,1.80
2018-12-25T09:42:37.159Z,1.80
2018-12-25T09:45:20.251Z,1.80
2018-12-25T09:48:04.617Z,1.80
2018-12-25T09:50:49.835Z,1.80
2018-12-25T09:53:32.159Z,1.90
2018-12-25T09:56:15.313Z,1.90
2018-12-25T09:58:58.337Z,1.90
2018-12-25T10:01:40.732Z,1.90
2018-12-25T10:04:23.680Z,1.90
2018-12-25T10:07:08.929Z,2.00
2018-12-25T10:12:42.878Z,2.00
2018-12-25T10:18:12.382Z,2.10
2018-12-25T10:20:59.505Z,2.00
2018-12-25T10:23:43.649Z,2.10
2018-12-25T10:26:26.244Z,2.10
2018-12-25T10:28:57.796Z,2.10
2018-12-25T10:31:48.204Z,2.00
2018-12-25T10:34:31.413Z,2.00
2018-12-25T10:37:17.505Z,2.10
2018-12-25T10:40:00.674Z,2.10
2018-12-25T10:42:43.065Z,2.20
2018-12-25T10:45:26.287Z,2.20
2018-12-25T10:48:09.655Z,2.30
2018-12-25T10:50:52.707Z,2.40
2018-12-25T10:56:34.733Z,2.50
2018-12-25T10:59:18.043Z,2.50
2018-12-25T11:02:03.015Z,2.50
2018-12-25T11:04:46.250Z,2.50
2018-12-25T11:07:28.993Z,2.50
2018-12-25T11:10:11.666Z,2.60
2018-12-25T11:12:54.697Z,2.60
2018-12-25T11:15:37.589Z,2.70
2018-12-25T11:18:20.858Z,2.70
2018-12-25T11:21:04.113Z,2.60
2018-12-25T11:23:46.900Z,2.70
2018-12-25T11:26:29.365Z,2.80
2018-12-25T11:29:12.605Z,2.90
2018-12-25T11:31:56.161Z,2.90
2018-12-25T11:34:38.534Z,2.80
2018-12-25T11:37:21.305Z,2.80
2018-12-25T11:42:45.326Z,2.80
2018-12-25T11:48:10.850Z,2.90
2018-12-25T11:50:59.682Z,2.90
2018-12-25T11:53:46.025Z,3.00
2018-12-25T11:56:28.996Z,3.00
2018-12-25T11:59:11.482Z,3.00
2018-12-25T12:01:53.889Z,3.10
2018-12-25T12:04:36.412Z,3.00
2018-12-25T12:10:01.790Z,3.10
2018-12-25T12:12:44.755Z,3.20
2018-12-25T12:15:27.287Z,3.20
2018-12-25T12:18:10.857Z,3.20
2018-12-25T12:23:47.826Z,3.20
2018-12-25T12:26:19.233Z,3.20
2018-12-25T12:29:02.349Z,3.30
2018-12-25T12:37:25.934Z,3.30
2018-12-25T12:40:08.614Z,3.40
2018-12-25T12:42:51.694Z,3.40
2018-12-25T12:45:34.102Z,3.40
2018-12-25T12:48:16.612Z,3.40
2018-12-25T12:51:00.294Z,3.40
2018-12-25T12:53:44.240Z,3.40
2018-12-25T12:56:27.106Z,3.50
2018-12-25T12:59:09.651Z,3.50
2018-12-25T13:01:52.345Z,3.50
2018-12-25T13:04:35.553Z,3.60
2018-12-25T13:07:18.828Z,3.60
2018-12-25T13:10:01.632Z,3.70
2018-12-25T13:12:44.729Z,3.60
2018-12-25T13:18:08.966Z,3.60
2018-12-25T13:20:52.191Z,3.60
2018-12-25T13:23:34.903Z,3.60
2018-12-25T13:29:11.595Z,3.70
2018-12-25T13:31:43.214Z,3.80
2018-12-25T13:34:26.446Z,3.70
2018-12-25T13:37:09.605Z,3.70
2018-12-25T13:39:52.825Z,3.80
2018-12-25T13:45:16.537Z,3.80
2018-12-25T13:47:59.808Z,3.80
2018-12-25T13:50:42.889Z,3.70
2018-12-25T13:53:32.097Z,3.70
2018-12-25T13:56:15.275Z,3.70
2018-12-25T13:58:57.783Z,3.60
2018-12-25T14:01:40.377Z,3.60
2018-12-25T14:04:23.909Z,3.60
2018-12-25T14:07:09.311Z,3.60
2018-12-25T14:09:52.427Z,3.60
2018-12-25T14:12:34.746Z,3.60
2018-12-25T14:15:17.050Z,3.60
2018-12-25T14:17:59.538Z,3.60
2018-12-25T14:20:42.010Z,3.60
2018-12-25T14:23:24.931Z,3.70
2018-12-25T14:26:07.761Z,3.70
2018-12-25T14:28:50.569Z,3.70
2018-12-25T14:31:33.214Z,3.70
2018-12-25T14:34:16.625Z,3.70
2018-12-25T14:36:59.493Z,3.70
2018-12-25T14:39:42.721Z,3.70
2018-12-25T14:42:28.503Z,3.70
2018-12-25T14:48:01.651Z,3.70
2018-12-25T14:53:25.917Z,3.70
2018-12-25T14:56:08.138Z,3.70
2018-12-25T14:58:54.504Z,3.70
2018-12-25T15:01:36.880Z,3.60
2018-12-25T15:04:08.592Z,3.60
2018-12-25T15:06:39.909Z,3.60
2018-12-25T15:09:11.201Z,3.60
2018-12-25T15:11:43.565Z,3.60
2018-12-25T15:14:14.874Z,3.60
2018-12-25T15:16:46.115Z,3.60
2018-12-25T15:19:17.366Z,3.50
2018-12-25T15:21:48.637Z,3.50
2018-12-25T15:24:19.884Z,3.50
2018-12-25T15:26:51.499Z,3.40
2018-12-25T15:29:23.567Z,3.40
2018-12-25T15:31:54.846Z,3.40
2018-12-25T15:34:26.098Z,3.40
2018-12-25T15:36:57.581Z,3.50
2018-12-25T15:39:41.038Z,3.50
2018-12-25T15:42:12.305Z,3.50
2018-12-25T15:44:43.592Z,3.50
2018-12-25T15:47:14.812Z,3.50
2018-12-25T15:49:48.288Z,3.40
2018-12-25T15:52:19.933Z,3.40
2018-12-25T15:54:51.277Z,3.40
2018-12-25T15:57:22.542Z,3.40
2018-12-25T15:59:54.047Z,3.50
2018-12-25T16:02:26.453Z,3.50
2018-12-25T16:04:57.702Z,3.50
2018-12-25T16:07:28.964Z,3.50
2018-12-25T16:10:00.250Z,3.50
2018-12-25T16:12:31.530Z,3.50
2018-12-25T16:15:02.786Z,3.50
2018-12-25T16:17:34.021Z,3.50
2018-12-25T16:20:07.257Z,3.50
2018-12-25T16:22:38.667Z,3.50
2018-12-25T16:25:09.897Z,3.50
2018-12-25T16:27:41.522Z,3.50
2018-12-25T16:30:13.870Z,3.50
2018-12-25T16:32:46.324Z,3.60
2018-12-25T16:35:17.673Z,3.50
2018-12-25T16:37:48.934Z,3.50
2018-12-25T16:40:20.204Z,3.50
2018-12-25T16:42:52.428Z,3.50
2018-12-25T16:45:23.688Z,3.50
2018-12-25T16:47:55.017Z,3.50
2018-12-25T16:50:26.419Z,3.50
2018-12-25T16:52:57.677Z,3.50
2018-12-25T16:55:28.977Z,3.40
2018-12-25T16:58:00.798Z,3.50
2018-12-25T17:00:32.238Z,3.50
2018-12-25T17:03:04.598Z,3.50
2018-12-25T17:05:36.333Z,3.40
2018-12-25T17:08:07.622Z,3.30
2018-12-25T17:10:38.932Z,3.30
2018-12-25T17:13:10.187Z,3.30
2018-12-25T17:15:41.477Z,3.30
2018-12-25T17:18:12.726Z,3.30
2018-12-25T17:20:43.975Z,3.30
2018-12-25T17:23:15.224Z,3.30
2018-12-25T17:25:46.469Z,3.30
2018-12-25T17:28:18.771Z,3.30
2018-12-25T17:30:50.314Z,3.30
2018-12-25T17:33:24.459Z,3.30
2018-12-25T17:35:56.663Z,3.40
2018-12-25T17:38:29.533Z,3.30
2018-12-25T17:41:00.806Z,3.30
2018-12-25T17:43:35.198Z,3.30
2018-12-25T17:46:08.269Z,3.30
2018-12-25T17:48:39.573Z,3.30
2018-12-25T17:51:10.850Z,3.30
2018-12-25T17:53:42.089Z,3.30
2018-12-25T17:56:13.549Z,3.30
2018-12-25T17:58:47.565Z,3.30
2018-12-25T18:01:18.818Z,3.30
2018-12-25T18:03:54.661Z,3.20
2018-12-25T18:06:25.926Z,3.30
2018-12-25T18:08:58.320Z,3.20
2018-12-25T18:11:29.823Z,3.30
2018-12-25T18:14:01.014Z,3.30
2018-12-25T18:16:32.265Z,3.30
2018-12-25T18:19:04.586Z,3.20
2018-12-25T18:21:35.827Z,3.20
2018-12-25T18:24:07.089Z,3.20
2018-12-25T18:26:38.520Z,3.10
2018-12-25T18:29:09.810Z,3.10
2018-12-25T18:31:41.073Z,3.10
2018-12-25T18:34:12.422Z,3.10
2018-12-25T18:36:43.693Z,3.10
2018-12-25T18:39:15.101Z,3.10
2018-12-25T18:41:48.922Z,3.10
2018-12-25T18:44:20.533Z,3.10
2018-12-25T18:46:52.332Z,3.10
2018-12-25T18:49:23.790Z,3.10
2018-12-25T18:51:55.110Z,3.10
2018-12-25T18:54:28.228Z,3.10
2018-12-25T18:56:59.533Z,3.10
2018-12-25T18:59:31.546Z,3.20
2018-12-25T19:02:03.281Z,3.10
2018-12-25T19:04:34.781Z,3.20
2018-12-25T19:07:06.390Z,3.10
2018-12-25T19:09:38.393Z,3.10
2018-12-25T19:12:09.840Z,3.20
2018-12-25T19:14:58.285Z,3.20
2018-12-25T19:17:29.616Z,3.20
2018-12-25T19:20:03.969Z,3.20
2018-12-25T19:22:35.487Z,3.20
2018-12-25T19:25:06.796Z,3.10
2018-12-25T19:27:40.243Z,3.10
2018-12-25T19:30:12.381Z,3.10
2018-12-25T19:32:46.937Z,3.00
2018-12-25T19:35:18.395Z,2.90
2018-12-25T19:37:50.180Z,2.90
2018-12-25T19:40:27.728Z,2.90
2018-12-25T19:42:59.128Z,2.90
2018-12-25T19:45:32.449Z,2.90
2018-12-25T19:48:03.810Z,2.90
2018-12-25T19:50:35.637Z,2.90
2018-12-25T19:53:09.266Z,2.90
2018-12-25T19:55:40.866Z,2.90
2018-12-25T19:58:14.573Z,3.00
2018-12-25T20:00:55.013Z,2.90
2018-12-25T20:03:46.908Z,2.90
2018-12-25T20:07:05.117Z,2.90
2018-12-25T20:10:16.677Z,2.90
2018-12-25T20:13:24.351Z,2.90
2018-12-25T20:16:21.633Z,2.80
2018-12-25T20:19:33.189Z,2.80
2018-12-25T20:22:45.233Z,2.90
2018-12-25T20:25:55.204Z,2.90
2018-12-25T20:29:05.752Z,2.90
2018-12-25T20:32:27.823Z,2.90
2018-12-25T20:35:52.161Z,2.90
2018-12-25T20:38:48.925Z,2.90
2018-12-25T20:41:52.679Z,2.90
2018-12-25T20:45:08.232Z,2.90
2018-12-25T20:48:22.048Z,2.80
2018-12-25T20:51:37.266Z,2.90
2018-12-25T20:55:07.888Z,2.80
2018-12-25T20:58:34.513Z,2.80
2018-12-25T21:01:51.558Z,2.70
2018-12-25T21:05:08.838Z,2.70
2018-12-25T21:08:36.025Z,2.60
2018-12-25T21:12:00.570Z,2.50
2018-12-25T21:15:05.613Z,2.50
2018-12-25T21:18:21.553Z,2.50
2018-12-25T21:21:35.396Z,2.40
2018-12-25T21:24:42.501Z,2.30
2018-12-25T21:27:33.729Z,2.30
2018-12-25T21:30:10.638Z,2.20
2018-12-25T21:32:43.613Z,2.10
2018-12-25T21:35:34.834Z,2.00
2018-12-25T21:38:36.253Z,2.00
2018-12-25T21:41:37.113Z,1.90
2018-12-25T21:44:27.518Z,1.90
2018-12-25T21:47:11.084Z,1.80
2018-12-25T21:49:54.281Z,1.70
2018-12-25T21:52:37.514Z,1.60
2018-12-25T21:55:20.049Z,1.50
2018-12-25T21:58:02.772Z,1.40
2018-12-25T22:00:45.641Z,1.30
2018-12-25T22:03:28.974Z,1.20
2018-12-25T22:06:00.298Z,1.20
2018-12-25T22:08:31.713Z,1.10
2018-12-25T22:11:02.965Z,1.10
2018-12-25T22:13:34.225Z,1.10
2018-12-25T22:16:05.498Z,1.10
2018-12-25T22:18:36.729Z,1.10
2018-12-25T22:21:07.956Z,1.00
2018-12-25T22:23:39.222Z,1.00
2018-12-25T22:26:10.470Z,0.90
2018-12-25T22:28:41.709Z,0.90
2018-12-25T22:31:13.423Z,0.80
2018-12-25T22:33:44.647Z,0.80
2018-12-25T22:36:16.274Z,0.70
2018-12-25T22:38:47.732Z,0.70
2018-12-25T22:41:19.150Z,0.70
2018-12-25T22:43:51.377Z,0.70
2018-12-25T22:46:22.621Z,0.70
2018-12-25T22:48:53.864Z,0.60
2018-12-25T22:51:25.150Z,0.50
2018-12-25T22:53:57.190Z,0.40
2018-12-25T22:56:28.445Z,0.40
2018-12-25T22:59:00.179Z,0.30
2018-12-25T23:01:31.520Z,0.30
2018-12-25T23:04:03.280Z,0.30
2018-12-25T23:06:34.676Z,0.30
2018-12-25T23:09:07.828Z,0.30
2018-12-25T23:11:40.052Z,0.20
2018-12-25T23:14:11.309Z,0.20
2018-12-25T23:16:42.555Z,0.10
2018-12-25T23:19:13.797Z,0.10
2018-12-25T23:21:45.007Z,0.00
2018-12-25T23:24:17.304Z,0.10
2018-12-25T23:26:48.726Z,0.00
2018-12-25T23:29:19.985Z,0.00
2018-12-25T23:31:51.237Z,0.00
2018-12-25T23:34:23.502Z,0.00
2018-12-25T23:36:55.756Z,-0.10
2018-12-25T23:39:28.049Z,-0.10
2018-12-25T23:41:59.652Z,-0.10
2018-12-25T23:44:30.981Z,-0.20
2018-12-25T23:47:02.177Z,-0.20
2018-12-25T23:49:33.425Z,-0.20
2018-12-25T23:52:04.664Z,-0.20
2018-12-25T23:54:36.034Z,-0.20
2018-12-25T23:57:07.565Z,-0.30
2018-12-25T23:59:38.859Z,-0.40
